createdAt,value
2018-04-11T00:02:28.112Z,14.73
2018-04-11T00:04:56.396Z,15.33
2018-04-11T00:07:24.692Z,14.63
2018-04-11T00:09:53.320Z,14.20
2018-04-11T00:12:21.624Z,14.93
2018-04-11T00:14:49.924Z,16.10
2018-04-11T00:17:18.257Z,15.30
2018-04-11T00:19:46.593Z,16.10
2018-04-11T00:22:14.885Z,15.77
2018-04-11T00:24:43.978Z,18.40
2018-04-11T00:27:12.281Z,17.07
2018-04-11T00:29:40.757Z,17.60
2018-04-11T00:32:09.058Z,17.73
2018-04-11T00:34:37.380Z,17.97
2018-04-11T00:37:05.713Z,19.33
2018-04-11T00:39:34.842Z,16.80
2018-04-11T00:42:03.889Z,18.90
2018-04-11T00:44:32.200Z,17.53
2018-04-11T00:47:00.529Z,21.10
2018-04-11T00:49:28.849Z,21.17
2018-04-11T00:51:57.916Z,22.13
2018-04-11T00:54:26.239Z,22.57
2018-04-11T00:56:54.537Z,21.63
2018-04-11T00:59:23.009Z,23.80
2018-04-11T01:01:51.335Z,25.00
2018-04-11T01:04:19.628Z,25.57
2018-04-11T01:06:47.957Z,22.43
2018-04-11T01:09:16.352Z,23.43
2018-04-11T01:11:44.641Z,23.00
2018-04-11T01:14:12.965Z,22.80
2018-04-11T01:16:41.252Z,21.40
2018-04-11T01:19:09.548Z,23.30
2018-04-11T01:21:37.893Z,22.63
2018-04-11T01:24:06.187Z,23.73
2018-04-11T01:26:34.473Z,21.97
2018-04-11T01:29:02.804Z,21.23
2018-04-11T01:31:31.872Z,22.87
2018-04-11T01:34:00.205Z,23.40
2018-04-11T01:36:28.500Z,22.87
2018-04-11T01:38:56.803Z,24.77
2018-04-11T01:41:25.302Z,23.10
2018-04-11T01:43:53.603Z,22.03
2018-04-11T01:46:21.900Z,22.37
2018-04-11T01:48:50.225Z,22.60
2018-04-11T01:51:18.973Z,22.33
2018-04-11T01:53:47.292Z,22.67
2018-04-11T01:56:15.596Z,22.73
2018-04-11T01:58:43.923Z,23.23
2018-04-11T02:01:12.217Z,23.30
2018-04-11T02:03:40.557Z,25.80
2018-04-11T02:06:08.886Z,25.43
2018-04-11T02:08:37.197Z,25.50
2018-04-11T02:11:05.499Z,25.50
2018-04-11T02:13:33.826Z,25.10
2018-04-11T02:16:02.136Z,24.00
2018-04-11T02:18:30.456Z,23.87
2018-04-11T02:20:58.785Z,24.43
2018-04-11T02:23:27.853Z,22.50
2018-04-11T02:25:56.326Z,21.90
2018-04-11T02:28:24.626Z,22.70
2018-04-11T02:30:52.928Z,21.50
2018-04-11T02:33:21.263Z,20.80
2018-04-11T02:35:49.726Z,20.17
2018-04-11T02:38:18.781Z,21.13
2018-04-11T02:40:47.408Z,22.53
2018-04-11T02:43:15.713Z,20.90
2018-04-11T02:45:44.020Z,21.07
2018-04-11T02:48:12.357Z,21.07
2018-04-11T02:50:41.456Z,22.67
2018-04-11T02:53:09.784Z,22.17
2018-04-11T02:55:38.845Z,24.10
2018-04-11T02:58:07.345Z,21.30
2018-04-11T03:00:35.664Z,22.23
2018-04-11T03:03:04.002Z,19.00
2018-04-11T03:05:32.333Z,20.10
2018-04-11T03:08:00.621Z,22.57
2018-04-11T03:10:29.091Z,21.33
2018-04-11T03:12:57.420Z,23.70
2018-04-11T03:15:26.494Z,22.37
2018-04-11T03:17:54.837Z,19.67
2018-04-11T03:20:24.233Z,22.20
2018-04-11T03:22:52.552Z,21.47
2018-04-11T03:25:20.850Z,21.10
2018-04-11T03:27:49.177Z,23.50
2018-04-11T03:30:18.275Z,24.03
2018-04-11T03:32:47.510Z,23.07
2018-04-11T03:35:16.094Z,22.97
2018-04-11T03:37:44.384Z,21.60
2018-04-11T03:40:12.680Z,21.40
2018-04-11T03:42:41.016Z,22.73
2018-04-11T03:45:10.106Z,22.83
2018-04-11T03:47:38.468Z,20.93
2018-04-11T03:50:07.530Z,21.30
2018-04-11T03:52:35.965Z,23.60
2018-04-11T03:55:05.097Z,22.90
2018-04-11T03:57:33.470Z,26.87
2018-04-11T04:00:02.984Z,23.37
2018-04-11T04:02:31.383Z,23.60
2018-04-11T04:04:59.724Z,23.40
2018-04-11T04:07:28.057Z,22.83
2018-04-11T04:09:57.233Z,24.57
2018-04-11T04:12:25.650Z,25.53
2018-04-11T04:15:06.133Z,25.23
2018-04-11T04:17:46.364Z,23.60
2018-04-11T04:20:27.053Z,24.30
2018-04-11T04:22:55.504Z,24.50
2018-04-11T04:25:23.956Z,23.47
2018-04-11T04:27:53.057Z,23.50
2018-04-11T04:30:21.384Z,23.30
2018-04-11T04:32:50.597Z,24.80
2018-04-11T04:35:19.673Z,24.60
2018-04-11T04:37:47.997Z,25.43
2018-04-11T04:40:16.299Z,27.77
2018-04-11T04:42:44.636Z,26.10
2018-04-11T04:45:13.190Z,24.10
2018-04-11T04:47:41.838Z,26.07
2018-04-11T04:50:10.341Z,23.10
2018-04-11T04:52:39.053Z,23.50
2018-04-11T04:55:08.952Z,24.00
2018-04-11T04:57:37.891Z,21.60
2018-04-11T05:00:07.293Z,24.57
2018-04-11T05:02:35.904Z,23.63
2018-04-11T05:05:04.927Z,25.30
2018-04-11T05:07:33.660Z,22.23
2018-04-11T05:10:02.096Z,28.27
2018-04-11T05:12:30.614Z,24.27
2018-04-11T05:14:59.091Z,26.10
2018-04-11T05:17:28.590Z,27.93
2018-04-11T05:19:57.059Z,27.87
2018-04-11T05:22:25.597Z,24.67
2018-04-11T05:24:53.912Z,24.00
2018-04-11T05:27:22.253Z,25.03
2018-04-11T05:29:51.357Z,23.27
2018-04-11T05:32:20.425Z,28.17
2018-04-11T05:34:48.720Z,27.00
2018-04-11T05:37:17.375Z,27.27
2018-04-11T05:39:46.115Z,24.47
2018-04-11T05:42:15.187Z,23.93
2018-04-11T05:44:43.525Z,26.13
2018-04-11T05:47:12.646Z,25.27
2018-04-11T05:49:41.798Z,22.97
2018-04-11T05:52:10.680Z,23.77
2018-04-11T05:54:39.705Z,26.80
2018-04-11T05:57:08.302Z,24.50
2018-04-11T05:59:36.616Z,24.50
2018-04-11T06:02:05.736Z,22.87
2018-04-11T06:04:34.801Z,23.17
2018-04-11T06:07:03.130Z,26.70
2018-04-11T06:09:31.481Z,23.53
2018-04-11T06:11:59.816Z,26.03
2018-04-11T06:14:28.176Z,24.70
2018-04-11T06:16:56.498Z,25.70
2018-04-11T06:19:24.828Z,23.43
2018-04-11T06:21:53.260Z,23.90
2018-04-11T06:24:21.566Z,24.50
2018-04-11T06:26:49.869Z,25.63
2018-04-11T06:29:18.202Z,23.90
2018-04-11T06:31:46.528Z,24.83
2018-04-11T06:34:14.917Z,24.67
2018-04-11T06:36:43.273Z,24.30
2018-04-11T06:39:11.574Z,24.23
2018-04-11T06:41:39.910Z,23.70
2018-04-11T06:44:08.209Z,22.87
2018-04-11T06:46:36.541Z,23.30
2018-04-11T06:49:04.873Z,20.50
2018-04-11T06:51:33.208Z,25.00
2018-04-11T06:54:02.330Z,21.07
2018-04-11T06:56:31.398Z,25.70
2018-04-11T06:58:59.864Z,23.37
2018-04-11T07:01:28.169Z,24.33
2018-04-11T07:03:56.474Z,21.10
2018-04-11T07:06:24.796Z,23.40
2018-04-11T07:08:53.337Z,24.67
2018-04-11T07:11:21.635Z,21.60
2018-04-11T07:13:49.942Z,22.50
2018-04-11T07:16:18.274Z,23.37
2018-04-11T07:18:47.349Z,21.60
2018-04-11T07:21:15.681Z,23.43
2018-04-11T07:23:44.013Z,22.70
2018-04-11T07:26:12.313Z,24.27
2018-04-11T07:28:40.642Z,22.30
2018-04-11T07:31:08.970Z,23.47
2018-04-11T07:33:37.276Z,25.50
2018-04-11T07:36:05.613Z,20.23
2018-04-11T07:38:33.977Z,24.30
2018-04-11T07:41:02.310Z,22.57
2018-04-11T07:43:31.398Z,22.60
2018-04-11T07:45:59.775Z,21.90
2018-04-11T07:48:28.832Z,23.30
2018-04-11T07:50:57.118Z,23.30
2018-04-11T07:53:25.456Z,19.53
2018-04-11T07:55:54.513Z,21.27
2018-04-11T07:58:23.045Z,22.57
2018-04-11T08:00:51.363Z,22.70
2018-04-11T08:03:19.712Z,23.47
2018-04-11T08:05:47.992Z,22.70
2018-04-11T08:08:17.057Z,21.50
2018-04-11T08:10:45.388Z,23.00
2018-04-11T08:13:13.682Z,20.20
2018-04-11T08:15:42.029Z,22.83
2018-04-11T08:18:11.163Z,23.13
2018-04-11T08:20:40.246Z,23.53
2018-04-11T08:23:08.532Z,19.33
2018-04-11T08:25:36.841Z,25.33
2018-04-11T08:28:05.198Z,24.00
2018-04-11T08:30:33.540Z,20.37
2018-04-11T08:33:01.839Z,22.47
2018-04-11T08:35:30.169Z,22.83
2018-04-11T08:37:59.229Z,22.80
2018-04-11T08:40:27.526Z,24.90
2018-04-11T08:42:55.873Z,23.43
2018-04-11T08:45:24.162Z,22.60
2018-04-11T08:47:52.457Z,23.23
2018-04-11T08:50:20.781Z,22.70
2018-04-11T08:52:49.124Z,22.83
2018-04-11T08:55:17.454Z,25.20
2018-04-11T08:57:45.745Z,23.80
2018-04-11T09:00:14.077Z,25.67
2018-04-11T09:02:42.377Z,25.50
2018-04-11T09:05:10.712Z,22.40
2018-04-11T09:07:39.773Z,25.30
2018-04-11T09:10:08.190Z,18.90
2018-04-11T09:12:36.524Z,23.70
2018-04-11T09:15:04.858Z,23.07
2018-04-11T09:17:33.185Z,22.83
2018-04-11T09:20:01.517Z,24.10
2018-04-11T09:22:29.897Z,21.37
2018-04-11T09:24:58.193Z,23.70
2018-04-11T09:27:26.517Z,28.23
2018-04-11T09:29:55.769Z,25.20
2018-04-11T09:32:24.883Z,23.60
2018-04-11T09:34:53.209Z,23.10
2018-04-11T09:37:22.309Z,24.37
2018-04-11T09:39:50.622Z,24.07
2018-04-11T09:42:19.742Z,26.67
2018-04-11T09:44:48.797Z,21.80
2018-04-11T09:47:17.130Z,28.50
2018-04-11T09:49:45.453Z,24.37
2018-04-11T09:52:13.785Z,25.07
2018-04-11T09:54:42.076Z,23.77
2018-04-11T09:57:11.142Z,25.00
2018-04-11T09:59:39.474Z,26.33
2018-04-11T10:02:07.804Z,27.53
2018-04-11T10:04:36.904Z,24.67
2018-04-11T10:07:05.999Z,25.60
2018-04-11T10:09:34.617Z,24.47
2018-04-11T10:12:02.929Z,26.37
2018-04-11T10:14:31.242Z,26.10
2018-04-11T10:16:59.572Z,27.60
2018-04-11T10:19:27.866Z,27.20
2018-04-11T10:21:56.198Z,26.57
2018-04-11T10:24:24.493Z,25.50
2018-04-11T10:26:52.829Z,25.73
2018-04-11T10:29:21.130Z,25.70
2018-04-11T10:31:49.457Z,26.90
2018-04-11T10:34:18.558Z,26.20
2018-04-11T10:36:46.940Z,25.70
2018-04-11T10:39:15.263Z,29.87
2018-04-11T10:41:43.552Z,27.67
2018-04-11T10:44:11.886Z,26.67
2018-04-11T10:46:40.465Z,27.77
2018-04-11T10:49:08.774Z,28.63
2018-04-11T10:51:37.076Z,27.47
2018-04-11T10:54:05.449Z,28.80
2018-04-11T10:56:33.746Z,27.27
2018-04-11T10:59:02.069Z,27.33
2018-04-11T11:01:30.363Z,17.37
2018-04-11T11:03:58.697Z,29.13
2018-04-11T11:06:26.986Z,26.90
2018-04-11T11:08:55.426Z,31.47
2018-04-11T11:11:24.511Z,28.60
2018-04-11T11:13:52.804Z,27.00
2018-04-11T11:16:21.217Z,29.47
2018-04-11T11:18:49.556Z,27.63
2018-04-11T11:21:18.619Z,28.90
2018-04-11T11:23:46.940Z,28.83
2018-04-11T11:26:15.308Z,32.70
2018-04-11T11:28:43.645Z,27.70
2018-04-11T11:31:12.086Z,22.20
2018-04-11T11:33:41.143Z,30.20
2018-04-11T11:36:09.442Z,26.43
2018-04-11T11:38:37.769Z,29.70
2018-04-11T11:41:06.072Z,31.10
2018-04-11T11:43:34.430Z,28.63
2018-04-11T11:46:02.730Z,29.57
2018-04-11T11:48:31.064Z,27.20
2018-04-11T11:50:59.402Z,23.37
2018-04-11T11:53:27.706Z,32.20
2018-04-11T11:55:56.033Z,27.27
2018-04-11T11:58:25.093Z,30.07
2018-04-11T12:00:53.421Z,28.93
2018-04-11T12:03:21.721Z,28.70
2018-04-11T12:05:51.240Z,30.53
2018-04-11T12:08:19.553Z,31.13
2018-04-11T12:10:47.855Z,30.40
2018-04-11T12:13:16.353Z,29.37
2018-04-11T12:15:45.558Z,31.03
2018-04-11T12:18:13.866Z,30.33
2018-04-11T12:20:42.198Z,26.13
2018-04-11T12:23:10.524Z,28.40
2018-04-11T12:25:39.589Z,31.23
2018-04-11T12:28:07.879Z,32.20
2018-04-11T12:30:36.417Z,31.70
2018-04-11T12:33:04.718Z,29.17
2018-04-11T12:35:33.014Z,27.50
2018-04-11T12:38:01.354Z,29.60
2018-04-11T12:40:30.453Z,29.40
2018-04-11T12:42:58.744Z,29.87
2018-04-11T12:45:27.041Z,29.97
2018-04-11T12:47:55.373Z,29.97
2018-04-11T12:50:24.429Z,29.13
2018-04-11T12:52:52.732Z,28.23
2018-04-11T12:55:21.069Z,29.73
2018-04-11T12:57:49.409Z,27.03
2018-04-11T13:00:18.471Z,28.07
2018-04-11T13:02:46.797Z,26.40
2018-04-11T13:05:15.096Z,29.27
2018-04-11T13:07:43.482Z,27.20
2018-04-11T13:10:11.788Z,28.37
2018-04-11T13:12:40.125Z,23.07
2018-04-11T13:15:08.531Z,27.20
2018-04-11T13:17:36.811Z,28.43
2018-04-11T13:20:05.158Z,25.00
2018-04-11T13:22:33.601Z,27.87
2018-04-11T13:25:01.925Z,28.10
2018-04-11T13:27:30.215Z,26.17
2018-04-11T13:29:58.557Z,30.00
2018-04-11T13:32:27.623Z,29.40
2018-04-11T13:34:55.940Z,26.20
2018-04-11T13:37:24.417Z,27.60
2018-04-11T13:39:52.711Z,28.40
2018-04-11T13:42:21.019Z,28.50
2018-04-11T13:44:49.369Z,30.13
2018-04-11T13:47:17.675Z,28.77
2018-04-11T13:49:45.969Z,27.63
2018-04-11T13:52:14.299Z,29.13
2018-04-11T13:54:43.362Z,28.87
2018-04-11T13:57:11.692Z,27.00
2018-04-11T13:59:39.988Z,29.23
2018-04-11T14:02:08.425Z,25.63
2018-04-11T14:04:37.483Z,29.70
2018-04-11T14:07:05.799Z,24.20
2018-04-11T14:09:34.417Z,27.37
2018-04-11T14:12:02.712Z,29.50
2018-04-11T14:14:31.033Z,29.50
2018-04-11T14:16:59.348Z,30.40
2018-04-11T14:19:28.413Z,29.17
2018-04-11T14:21:56.749Z,26.40
2018-04-11T14:24:25.094Z,25.97
2018-04-11T14:26:53.390Z,27.37
2018-04-11T14:29:21.728Z,28.50
2018-04-11T14:31:50.041Z,25.07
2018-04-11T14:34:18.333Z,26.87
2018-04-11T14:36:46.665Z,27.03
2018-04-11T14:39:14.999Z,28.70
2018-04-11T14:41:44.116Z,29.27
2018-04-11T14:44:13.176Z,30.93
2018-04-11T14:46:41.818Z,25.47
2018-04-11T14:49:10.110Z,25.53
2018-04-11T14:51:38.431Z,26.20
2018-04-11T14:54:06.957Z,26.07
2018-04-11T14:56:35.228Z,25.93
2018-04-11T14:59:03.539Z,27.50
2018-04-11T15:01:31.873Z,25.23
2018-04-11T15:04:00.173Z,26.10
2018-04-11T15:06:28.511Z,25.83
2018-04-11T15:08:56.801Z,25.13
2018-04-11T15:11:25.093Z,24.03
2018-04-11T15:13:53.525Z,25.93
2018-04-11T15:16:21.834Z,24.67
2018-04-11T15:18:50.445Z,20.00
2018-04-11T15:21:18.741Z,21.37
2018-04-11T15:23:47.036Z,23.83
2018-04-11T15:26:15.360Z,23.10
2018-04-11T15:28:43.694Z,24.07
2018-04-11T15:31:12.762Z,21.90
2018-04-11T15:33:41.085Z,23.93
2018-04-11T15:36:09.393Z,22.67
2018-04-11T15:38:37.684Z,21.00
2018-04-11T15:41:06.019Z,22.50
2018-04-11T15:43:35.142Z,20.93
2018-04-11T15:46:06.014Z,20.87
2018-04-11T15:48:35.289Z,20.20
2018-04-11T15:51:03.594Z,23.60
2018-04-11T15:53:31.906Z,25.10
2018-04-11T15:56:00.229Z,23.10
2018-04-11T15:58:29.288Z,25.33
2018-04-11T16:00:57.630Z,22.17
2018-04-11T16:03:25.961Z,22.07
2018-04-11T16:05:55.022Z,22.67
2018-04-11T16:08:23.317Z,23.60
2018-04-11T16:10:51.645Z,24.17
2018-04-11T16:13:19.985Z,20.77
2018-04-11T16:15:49.112Z,21.30
2018-04-11T16:18:18.209Z,24.57
2018-04-11T16:20:46.534Z,24.83
2018-04-11T16:23:15.620Z,26.13
2018-04-11T16:25:43.953Z,24.10
2018-04-11T16:28:13.022Z,22.00
2018-04-11T16:30:41.665Z,23.10
2018-04-11T16:33:09.948Z,23.60
2018-04-11T16:35:38.254Z,23.47
2018-04-11T16:38:06.611Z,23.50
2018-04-11T16:40:34.965Z,23.90
2018-04-11T16:43:03.293Z,24.27
2018-04-11T16:45:33.117Z,27.07
2018-04-11T16:48:02.202Z,26.10
2018-04-11T16:50:30.545Z,26.17
2018-04-11T16:52:59.731Z,26.47
2018-04-11T16:55:28.082Z,23.97
2018-04-11T16:57:57.144Z,28.03
2018-04-11T17:00:25.470Z,24.07
2018-04-11T17:02:53.801Z,21.63
2018-04-11T17:05:22.877Z,27.57
2018-04-11T17:07:51.207Z,28.53
2018-04-11T17:10:19.575Z,24.37
2018-04-11T17:12:47.905Z,22.83
2018-04-11T17:15:16.211Z,27.77
2018-04-11T17:17:44.546Z,28.63
2018-04-11T17:20:12.878Z,29.17
2018-04-11T17:22:53.098Z,26.30
2018-04-11T17:25:33.478Z,26.97
2018-04-11T17:28:13.754Z,29.00
2018-04-11T17:30:54.255Z,26.33
2018-04-11T17:33:22.577Z,29.67
2018-04-11T17:35:50.917Z,24.80
2018-04-11T17:38:19.298Z,24.57
2018-04-11T17:40:48.362Z,25.87
2018-04-11T17:43:16.693Z,25.40
2018-04-11T17:45:45.358Z,26.87
2018-04-11T17:48:13.697Z,27.70
2018-04-11T17:50:42.169Z,27.20
2018-04-11T17:53:10.482Z,26.57
2018-04-11T17:55:38.777Z,27.53
2018-04-11T17:58:07.306Z,26.80
2018-04-11T18:00:35.608Z,25.30
2018-04-11T18:03:03.923Z,26.77
2018-04-11T18:05:33.069Z,26.87
2018-04-11T18:08:02.130Z,27.00
2018-04-11T18:10:30.461Z,26.47
2018-04-11T18:12:58.778Z,25.87
2018-04-11T18:15:27.119Z,26.90
2018-04-11T18:17:55.416Z,27.13
2018-04-11T18:20:23.797Z,28.10
2018-04-11T18:22:52.870Z,26.10
2018-04-11T18:25:21.166Z,28.40
2018-04-11T18:27:49.505Z,25.60
2018-04-11T18:30:17.796Z,28.20
2018-04-11T18:32:46.285Z,28.33
2018-04-11T18:35:14.585Z,31.40
2018-04-11T18:37:42.886Z,29.27
2018-04-11T18:40:11.205Z,28.20
2018-04-11T18:42:39.517Z,27.77
2018-04-11T18:45:07.845Z,28.60
2018-04-11T18:47:36.913Z,29.73
2018-04-11T18:50:06.182Z,29.67
2018-04-11T18:52:35.295Z,29.27
2018-04-11T18:55:04.375Z,27.80
2018-04-11T18:57:32.730Z,27.53
2018-04-11T19:00:01.788Z,30.03
2018-04-11T19:02:30.129Z,29.00
2018-04-11T19:04:58.461Z,29.00
2018-04-11T19:07:26.797Z,27.70
2018-04-11T19:09:55.096Z,31.20
2018-04-11T19:12:23.562Z,27.27
2018-04-11T19:14:52.616Z,30.00
2018-04-11T19:17:20.932Z,29.70
2018-04-11T19:19:49.265Z,30.83
2018-04-11T19:22:17.571Z,28.40
2018-04-11T19:24:46.673Z,30.50
2018-04-11T19:27:14.961Z,29.87
2018-04-11T19:29:44.021Z,30.27
2018-04-11T19:32:13.122Z,29.30
2018-04-11T19:34:41.522Z,29.07
2018-04-11T19:37:09.824Z,29.00
2018-04-11T19:39:38.877Z,29.10
2018-04-11T19:42:07.972Z,29.70
2018-04-11T19:44:36.272Z,28.97
2018-04-11T19:47:04.617Z,29.80
2018-04-11T19:49:32.923Z,29.97
2018-04-11T19:52:01.208Z,30.50
2018-04-11T19:54:29.732Z,31.73
2018-04-11T19:56:58.049Z,28.80
2018-04-11T19:59:26.344Z,27.50
2018-04-11T20:01:54.752Z,28.43
2018-04-11T20:04:23.076Z,28.83
2018-04-11T20:06:51.389Z,31.90
2018-04-11T20:09:19.733Z,28.93
2018-04-11T20:11:48.793Z,31.90
2018-04-11T20:14:17.120Z,31.97
2018-04-11T20:16:46.927Z,30.10
2018-04-11T20:19:15.457Z,30.70
2018-04-11T20:21:43.758Z,31.53
2018-04-11T20:24:12.058Z,32.73
2018-04-11T20:26:40.387Z,32.03
2018-04-11T20:29:08.686Z,30.40
2018-04-11T20:31:37.174Z,31.37
2018-04-11T20:34:05.481Z,31.03
2018-04-11T20:36:33.811Z,32.23
2018-04-11T20:39:02.913Z,31.07
2018-04-11T20:41:32.016Z,34.40
2018-04-11T20:44:00.313Z,31.70
2018-04-11T20:46:28.832Z,30.70
2018-04-11T20:48:57.136Z,31.63
2018-04-11T20:51:25.433Z,33.33
2018-04-11T20:53:53.928Z,31.37
2018-04-11T20:56:22.230Z,32.00
2018-04-11T20:58:50.534Z,33.47
2018-04-11T21:01:18.890Z,31.87
2018-04-11T21:03:47.221Z,30.40
2018-04-11T21:06:15.548Z,29.10
2018-04-11T21:08:43.845Z,29.40
2018-04-11T21:11:12.169Z,29.07
2018-04-11T21:13:40.466Z,27.10
2018-04-11T21:16:08.792Z,22.47
2018-04-11T21:18:37.893Z,23.90
2018-04-11T21:21:06.969Z,25.63
2018-04-11T21:23:35.316Z,24.13
2018-04-11T21:26:03.658Z,24.57
2018-04-11T21:28:32.112Z,23.60
2018-04-11T21:31:00.400Z,23.90
2018-04-11T21:33:28.739Z,24.23
2018-04-11T21:35:57.787Z,22.87
2018-04-11T21:38:26.121Z,22.90
2018-04-11T21:40:54.438Z,22.93
2018-04-11T21:43:22.776Z,22.63
2018-04-11T21:45:51.874Z,24.60
2018-04-11T21:48:20.222Z,21.27
2018-04-11T21:50:48.521Z,22.50
2018-04-11T21:53:16.948Z,20.53
2018-04-11T21:55:45.242Z,20.17
2018-04-11T21:58:13.561Z,21.73
2018-04-11T22:00:41.964Z,20.90
2018-04-11T22:03:10.313Z,22.70
2018-04-11T22:05:39.413Z,24.07
2018-04-11T22:08:07.805Z,21.53
2018-04-11T22:10:36.110Z,22.53
2018-04-11T22:13:05.419Z,22.50
2018-04-11T22:15:33.749Z,23.43
2018-04-11T22:18:03.570Z,23.70
2018-04-11T22:20:31.993Z,22.60
2018-04-11T22:23:01.064Z,21.27
2018-04-11T22:25:29.388Z,23.50
2018-04-11T22:27:57.689Z,21.93
2018-04-11T22:30:26.029Z,22.57
2018-04-11T22:32:55.084Z,23.37
2018-04-11T22:35:23.416Z,24.50
2018-04-11T22:37:51.712Z,21.67
2018-04-11T22:40:20.221Z,21.63
2018-04-11T22:42:48.524Z,23.50
2018-04-11T22:45:16.933Z,21.63
2018-04-11T22:47:45.254Z,22.70
2018-04-11T22:50:13.576Z,22.63
2018-04-11T22:52:41.872Z,22.50
2018-04-11T22:55:10.966Z,22.30
2018-04-11T22:57:39.288Z,21.30
2018-04-11T23:00:08.483Z,23.10
2018-04-11T23:02:36.566Z,24.63
2018-04-11T23:05:04.863Z,22.07
2018-04-11T23:07:33.209Z,22.40
2018-04-11T23:10:02.349Z,20.93
2018-04-11T23:12:30.653Z,22.90
2018-04-11T23:14:58.976Z,22.97
2018-04-11T23:17:27.265Z,23.70
2018-04-11T23:19:55.598Z,23.47
2018-04-11T23:22:23.895Z,22.20
2018-04-11T23:24:52.421Z,22.53
2018-04-11T23:27:20.717Z,23.73
2018-04-11T23:29:49.013Z,24.17
2018-04-11T23:32:17.340Z,24.30
2018-04-11T23:34:45.732Z,22.10
2018-04-11T23:37:14.138Z,24.00
2018-04-11T23:39:42.470Z,21.57
2018-04-11T23:42:11.539Z,19.97
2018-04-11T23:44:39.957Z,24.47
2018-04-11T23:47:08.257Z,24.13
2018-04-11T23:49:36.593Z,24.10
2018-04-11T23:52:05.678Z,22.70
2018-04-11T23:54:34.021Z,23.70
2018-04-11T23:57:03.108Z,23.67
2018-04-11T23:59:31.426Z,25.30
